Dart — OUOV2 — position and weather

sailwx.info

Track history (hours):
 
Tides and Currents Weather Stations Pressure Air Temp Water Temp Dewpoint Dewpoint Depression Visibility Wind Speed Wind Dir Waves Ship Positions

Dart

Last reported at 2015-Aug-29 12:24 UTC. Time now 2015-Aug-30 03:38 UTC.
Position N 63°05' E 007°41'.

Length 66 m; draft 4.6 m.

Type: Tanker. MMSI: 219416000.

Date/timePositionNaut miles runAvg speedWind from/ knotsBaromVisibWave heightAir tempDewpointWater temp
2015-Aug-29 12:24N 63°05' E 007°41'56 8.1
2015-Aug-29 05:34N 63°35' E 009°25'1010.0
2015-Aug-29 04:34N 63°45' E 009°32'9 8.6
2015-Aug-29 03:34N 63°52' E 009°42'9 8.5
2015-Aug-29 02:33N 63°59' E 009°54'52 7.4
2015-Aug-28 19:33N 64°43' E 010°55'9 8.5
2015-Aug-28 18:34N 64°49' E 011°09'9 8.9
2015-Aug-28 17:33N 64°55' E 011°25'9 9.3
2015-Aug-28 16:33N 65°01' E 011°42'9 9.5
2015-Aug-28 15:33N 65°10' E 011°51'10 9.8
2015-Aug-28 14:33N 65°19' E 012°00'64 3.8
2015-Aug-27 21:29N 66°19' E 012°56'9 9.1
2015-Aug-27 20:29N 66°28' E 012°59'17 8.7
2015-Aug-27 18:31N 66°44' E 013°11'11 9.5
2015-Aug-27 17:23N 66°54' E 013°25'7 8.8
2015-Aug-27 16:33N 66°59' E 013°36'10 9.7
2015-Aug-27 15:33N 67°05' E 013°56'9 9.2
2015-Aug-27 14:33N 67°13' E 014°08'10 9.6
2015-Aug-27 13:33N 67°21' E 014°22'9 9.3
2015-Aug-27 12:33N 67°30' E 014°29'10 9.7
2015-Aug-27 11:33N 67°40' E 014°31'150 8.9
2015-Aug-26 18:33N 69°36' E 018°52'9 9.1
2015-Aug-26 17:32N 69°45' E 019°04'  
2015-Aug-24 12:31N 67°47' E 014°22'9 9.8
2015-Aug-24 11:33N 67°38' E 014°22'9 9.4
2015-Aug-24 10:33N 67°29' E 014°27'9 9.1
2015-Aug-24 09:33N 67°20' E 014°20'10 9.6
2015-Aug-24 08:33N 67°12' E 014°06'10 9.8
2015-Aug-24 07:33N 67°04' E 013°53'10 9.5
2015-Aug-24 06:33N 66°58' E 013°34'9 8.9
2015-Aug-24 05:33N 66°51' E 013°19'19 9.6
2015-Aug-24 03:33N 66°33' E 013°02'9 8.7
2015-Aug-24 02:32N 66°24' E 012°59'65 3.1
2015-Aug-23 05:31N 65°24' E 011°58'8 8.1
2015-Aug-23 04:33N 65°17' E 011°58'9 9.3
2015-Aug-23 03:33N 65°08' E 011°50'9 9.5
2015-Aug-23 02:34N 65°00' E 011°37'10 9.5
2015-Aug-23 01:33N 64°54' E 011°20'10 9.8
2015-Aug-23 00:33N 64°47' E 011°04'54 8.9
2015-Aug-22 18:33N 64°04' E 009°51'9 9.3
2015-Aug-22 17:33N 63°55' E 009°46'10 9.5
2015-Aug-22 16:33N 63°47' E 009°34'10 9.5
2015-Aug-22 15:33N 63°38' E 009°28'249 7.3
2015-Aug-21 05:27N 59°56' E 005°29'8 9.0
2015-Aug-21 04:33N 59°48' E 005°34'9 9.1
2015-Aug-21 03:33N 59°41' E 005°23'1010.4
2015-Aug-21 02:33N 59°32' E 005°13'12 9.1
2015-Aug-21 01:15N 59°21' E 005°19'7 9.7
2015-Aug-21 00:33N 59°14' E 005°21'8 8.5
2015-Aug-20 23:33N 59°07' E 005°29'9 8.5
2015-Aug-20 22:33N 59°00' E 005°40'0 0.1
2015-Aug-20 21:32N 58°60' E 005°40'0 0.0
2015-Aug-20 20:32N 58°60' E 005°40'0 0.0
2015-Aug-20 19:32N 58°60' E 005°40'0 0.0
2015-Aug-20 18:32N 58°60' E 005°40'0 0.0
2015-Aug-20 17:32N 58°60' E 005°40'0 0.0
2015-Aug-20 16:32N 58°60' E 005°40'3 3.0
2015-Aug-20 15:34N 59°02' E 005°44'8 7.9
2015-Aug-20 14:33N 58°54' E 005°46'1 0.8
2015-Aug-20 13:33N 58°53' E 005°45'0 0.0
2015-Aug-20 12:33N 58°53' E 005°45'0 0.0
2015-Aug-20 11:33N 58°53' E 005°45'0 0.0
2015-Aug-20 10:33N 58°53' E 005°45'0 0.0
2015-Aug-20 09:33N 58°53' E 005°45'0 0.0
2015-Aug-20 08:30N 58°53' E 005°45'0 0.0
2015-Aug-20 07:33N 58°53' E 005°45'0 0.0
2015-Aug-20 06:33N 58°53' E 005°45'0 0.0
2015-Aug-20 05:33N 58°53' E 005°45'0 0.0
2015-Aug-20 04:33N 58°53' E 005°45'0 0.0
2015-Aug-20 03:33N 58°53' E 005°45'6 5.5
2015-Aug-20 02:33N 58°59' E 005°48'5 5.4
2015-Aug-20 01:33N 59°01' E 005°39'8 8.1
2015-Aug-20 00:34N 59°07' E 005°28'7 7.2
2015-Aug-19 23:33N 59°13' E 005°20'34 6.7
2015-Aug-19 18:33N 59°47' E 005°20'  
Track history (hours):
 
Tides and Currents Weather Stations Pressure Air Temp Water Temp Dewpoint Dewpoint Depression Visibility Wind Speed Wind Dir Waves Ship Positions

Dart

Last reported at 2015-Aug-29 12:24 UTC. Time now 2015-Aug-30 03:38 UTC.
Position N 63°05' E 007°41'.

Length 66 m; draft 4.6 m.

Type: Tanker. MMSI: 219416000.

Date/timePositionNaut miles runAvg speedWind from/ knotsBaromVisibWave heightAir tempDewpointWater temp
2015-Aug-29 12:24N 63°05' E 007°41'56 8.1
2015-Aug-29 05:34N 63°35' E 009°25'1010.0
2015-Aug-29 04:34N 63°45' E 009°32'9 8.6
2015-Aug-29 03:34N 63°52' E 009°42'9 8.5
2015-Aug-29 02:33N 63°59' E 009°54'52 7.4
2015-Aug-28 19:33N 64°43' E 010°55'9 8.5
2015-Aug-28 18:34N 64°49' E 011°09'9 8.9
2015-Aug-28 17:33N 64°55' E 011°25'9 9.3
2015-Aug-28 16:33N 65°01' E 011°42'9 9.5
2015-Aug-28 15:33N 65°10' E 011°51'10 9.8
2015-Aug-28 14:33N 65°19' E 012°00'64 3.8
2015-Aug-27 21:29N 66°19' E 012°56'9 9.1
2015-Aug-27 20:29N 66°28' E 012°59'17 8.7
2015-Aug-27 18:31N 66°44' E 013°11'11 9.5
2015-Aug-27 17:23N 66°54' E 013°25'7 8.8
2015-Aug-27 16:33N 66°59' E 013°36'10 9.7
2015-Aug-27 15:33N 67°05' E 013°56'9 9.2
2015-Aug-27 14:33N 67°13' E 014°08'10 9.6
2015-Aug-27 13:33N 67°21' E 014°22'9 9.3
2015-Aug-27 12:33N 67°30' E 014°29'10 9.7
2015-Aug-27 11:33N 67°40' E 014°31'150 8.9
2015-Aug-26 18:33N 69°36' E 018°52'9 9.1
2015-Aug-26 17:32N 69°45' E 019°04'  
2015-Aug-24 12:31N 67°47' E 014°22'9 9.8
2015-Aug-24 11:33N 67°38' E 014°22'9 9.4
2015-Aug-24 10:33N 67°29' E 014°27'9 9.1
2015-Aug-24 09:33N 67°20' E 014°20'10 9.6
2015-Aug-24 08:33N 67°12' E 014°06'10 9.8
2015-Aug-24 07:33N 67°04' E 013°53'10 9.5
2015-Aug-24 06:33N 66°58' E 013°34'9 8.9
2015-Aug-24 05:33N 66°51' E 013°19'19 9.6
2015-Aug-24 03:33N 66°33' E 013°02'9 8.7
2015-Aug-24 02:32N 66°24' E 012°59'65 3.1
2015-Aug-23 05:31N 65°24' E 011°58'8 8.1
2015-Aug-23 04:33N 65°17' E 011°58'9 9.3
2015-Aug-23 03:33N 65°08' E 011°50'9 9.5
2015-Aug-23 02:34N 65°00' E 011°37'10 9.5
2015-Aug-23 01:33N 64°54' E 011°20'10 9.8
2015-Aug-23 00:33N 64°47' E 011°04'54 8.9
2015-Aug-22 18:33N 64°04' E 009°51'9 9.3
2015-Aug-22 17:33N 63°55' E 009°46'10 9.5
2015-Aug-22 16:33N 63°47' E 009°34'10 9.5
2015-Aug-22 15:33N 63°38' E 009°28'249 7.3
2015-Aug-21 05:27N 59°56' E 005°29'8 9.0
2015-Aug-21 04:33N 59°48' E 005°34'9 9.1
2015-Aug-21 03:33N 59°41' E 005°23'1010.4
2015-Aug-21 02:33N 59°32' E 005°13'12 9.1
2015-Aug-21 01:15N 59°21' E 005°19'7 9.7
2015-Aug-21 00:33N 59°14' E 005°21'8 8.5
2015-Aug-20 23:33N 59°07' E 005°29'9 8.5
2015-Aug-20 22:33N 59°00' E 005°40'0 0.1
2015-Aug-20 21:32N 58°60' E 005°40'0 0.0
2015-Aug-20 20:32N 58°60' E 005°40'0 0.0
2015-Aug-20 19:32N 58°60' E 005°40'0 0.0
2015-Aug-20 18:32N 58°60' E 005°40'0 0.0
2015-Aug-20 17:32N 58°60' E 005°40'0 0.0
2015-Aug-20 16:32N 58°60' E 005°40'3 3.0
2015-Aug-20 15:34N 59°02' E 005°44'8 7.9
2015-Aug-20 14:33N 58°54' E 005°46'1 0.8
2015-Aug-20 13:33N 58°53' E 005°45'0 0.0
2015-Aug-20 12:33N 58°53' E 005°45'0 0.0
2015-Aug-20 11:33N 58°53' E 005°45'0 0.0
2015-Aug-20 10:33N 58°53' E 005°45'0 0.0
2015-Aug-20 09:33N 58°53' E 005°45'0 0.0
2015-Aug-20 08:30N 58°53' E 005°45'0 0.0
2015-Aug-20 07:33N 58°53' E 005°45'0 0.0
2015-Aug-20 06:33N 58°53' E 005°45'0 0.0
2015-Aug-20 05:33N 58°53' E 005°45'0 0.0
2015-Aug-20 04:33N 58°53' E 005°45'0 0.0
2015-Aug-20 03:33N 58°53' E 005°45'6 5.5
2015-Aug-20 02:33N 58°59' E 005°48'5 5.4
2015-Aug-20 01:33N 59°01' E 005°39'8 8.1
2015-Aug-20 00:34N 59°07' E 005°28'7 7.2
2015-Aug-19 23:33N 59°13' E 005°20'34 6.7
2015-Aug-19 18:33N 59°47' E 005°20'  

Dump ship's entire track history